KQBF/QBF METAR and TAF weather

Enter ICAO airport designator
Station Type Date Time Source
KQBF METAR 2018/12/17 15:56 UTC NOAA

KQBF 171556Z AUTO VRB03KT 9999 CLR 34/00 A2991 RMK AO2 SLP085 WND DATA ESTMD T03361003


Station Type Date Time Source
KQBF Decoded METAR 2018/12/17 15:56 UTC NOAA

Station name not available
Dec 17, 2018 - 10:56 AM EST / 2018.12.17 1556 UTC
Wind: Variable at 3 MPH (3 KT):0
Visibility: greater than 7 mile(s):0
Sky conditions: clear
Temperature: 92.5 F (33.6 C)
Dew Point: 31.5 F (-0.3 C)
Relative Humidity: 11%
Pressure (altimeter): 29.91 in. Hg (1012 hPa)
ob: KQBF 171556Z AUTO VRB03KT 9999 CLR 34/00 A2991 RMK AO2 SLP085 WND DATA ESTMD T03361003
cycle: 16

Station Type Date Time Source
KQBF TAF 2009/08/24 17:21 UTC NOAA

TAF
AMD KQBF 241721Z 241313 06010G20KT 9999 FEW025 SCT160 BKN230 QNH2915INS
BECMG 2223 100020G25KT 9000 -SHRA SCT009 BKN025 OVC035 610505 QNH2910INS
TEMPO 0209 10025G35KT BKN010
BECMG 1213 09020G25KT 9000 -SHRA SCT015 BKN035 OVC050 610606 T11/15Z T10/00Z
AMD 241744 LIMITED METWATCH 2417 TIL 2507


Example: see airport list